Time;durP1;ratioP1;P1;durP2;ratioP2;P2;SDS_P1;SDS_P2;PMS_P1;PMS_P2;Temp;Humidity;BMP_temperature;BMP_pressure;BME280_temperature;BME280_humidity;BME280_pressure;Samples;Min_cycle;Max_cycle;Signal;HPM_P1;HPM_P2
2022/10/27 00:00:58;;;;;;;27.50;9.18;;;;;;;18.67;69.84;101558.66;4910762;28;122035;-76
2022/10/27 00:03:24;;;;;;;23.15;9.52;;;;;;;18.67;69.82;101557.88;4941088;28;120347;-76
2022/10/27 00:05:50;;;;;;;27.38;9.07;;;;;;;18.60;69.94;101555.50;4930510;28;120008;-75
2022/10/27 00:08:20;;;;;;;22.58;8.90;;;;;;;18.60;69.84;101564.59;4934560;28;120246;-77
2022/10/27 00:10:56;;;;;;;26.17;8.98;;;;;;;18.55;70.05;101559.75;4917961;28;120057;-75
2022/10/27 00:13:22;;;;;;;24.30;8.82;;;;;;;18.55;70.00;101564.53;4895576;28;120893;-75
2022/10/27 00:16:02;;;;;;;27.08;9.23;;;;;;;18.54;69.93;101568.56;4926124;28;120039;-76
2022/10/27 00:18:34;;;;;;;36.03;9.52;;;;;;;18.49;70.17;101572.03;4925065;28;119844;-77
2022/10/27 00:21:05;;;;;;;31.38;8.90;;;;;;;18.47;70.40;101577.31;4928250;28;119461;-76
2022/10/27 00:23:31;;;;;;;35.00;9.18;;;;;;;18.42;70.27;101570.41;4915037;28;119649;-76
2022/10/27 00:25:58;;;;;;;23.48;8.48;;;;;;;18.38;70.60;101573.38;4927875;28;120314;-77
2022/10/27 00:28:24;;;;;;;27.73;8.73;;;;;;;18.40;70.43;101584.00;4910211;28;119986;-78
2022/10/27 00:31:04;;;;;;;28.65;8.93;;;;;;;18.36;70.66;101584.22;4918213;28;119542;-76
2022/10/27 00:33:30;;;;;;;24.08;8.68;;;;;;;18.34;70.73;101589.50;4920040;28;119597;-76
2022/10/27 00:36:17;;;;;;;36.38;8.45;;;;;;;18.32;70.70;101586.44;4928133;28;120121;-76
2022/10/27 00:38:43;;;;;;;28.95;9.02;;;;;;;18.31;70.82;101589.69;4928263;28;119951;-76
2022/10/27 00:41:30;;;;;;;27.90;8.50;;;;;;;18.28;70.92;101587.88;4925305;28;120077;-77
2022/10/27 00:43:58;;;;;;;30.52;9.48;;;;;;;18.29;70.97;101590.19;4928880;28;119500;-76
2022/10/27 00:46:44;;;;;;;27.88;9.35;;;;;;;18.29;70.83;101598.50;4913889;28;119691;-77
2022/10/27 00:49:13;;;;;;;32.90;9.30;;;;;;;18.26;70.78;101593.94;4925367;28;119691;-76
2022/10/27 00:51:49;;;;;;;32.28;8.75;;;;;;;18.21;70.96;101586.25;4928641;28;119907;-76
2022/10/27 00:54:17;;;;;;;28.30;9.63;;;;;;;18.24;70.70;101593.66;4934445;28;119700;-76
2022/10/27 00:57:06;;;;;;;26.20;8.73;;;;;;;18.22;70.82;101595.38;4927018;28;120131;-76
2022/10/27 00:59:33;;;;;;;26.73;9.68;;;;;;;18.16;70.71;101586.16;4927754;28;119945;-76
2022/10/27 01:01:59;;;;;;;30.55;9.57;;;;;;;18.19;70.79;101593.53;4929710;28;119996;-76
2022/10/27 01:04:39;;;;;;;31.02;9.45;;;;;;;18.12;70.99;101597.47;4913088;28;119613;-76
2022/10/27 01:07:06;;;;;;;30.35;10.43;;;;;;;18.10;70.93;101591.66;4925546;28;119866;-79
2022/10/27 01:09:31;;;;;;;32.53;9.55;;;;;;;18.08;70.94;101605.25;4924117;28;119969;-76
2022/10/27 01:11:57;;;;;;;25.90;9.93;;;;;;;18.07;70.95;101612.81;4930849;28;119488;-75
2022/10/27 01:14:24;;;;;;;35.08;10.38;;;;;;;18.04;70.97;101602.66;4930638;28;119685;-76
2022/10/27 01:17:02;;;;;;;31.95;10.90;;;;;;;18.03;70.96;101611.47;4920135;28;120249;-76
2022/10/27 01:19:37;;;;;;;36.78;10.15;;;;;;;18.04;70.69;101613.78;4932769;28;120009;-76
2022/10/27 01:22:15;;;;;;;29.33;10.15;;;;;;;17.97;70.92;101608.59;4918220;28;120184;-76
2022/10/27 01:25:01;;;;;;;29.65;10.00;;;;;;;18.00;70.64;101610.44;4908342;28;119950;-77
2022/10/27 01:27:47;;;;;;;30.00;10.75;;;;;;;17.97;70.96;101616.16;4925536;28;119556;-76
2022/10/27 01:30:18;;;;;;;33.03;10.70;;;;;;;17.95;71.24;101613.09;4924284;28;120094;-77
2022/10/27 01:32:46;;;;;;;33.15;10.23;;;;;;;17.94;71.29;101626.19;4928806;28;119523;-76
2022/10/27 01:35:43;;;;;;;33.08;9.85;;;;;;;17.96;71.43;101620.16;4930116;28;120002;-76
2022/10/27 01:38:26;;;;;;;31.45;10.38;;;;;;;17.92;71.54;101628.69;4911974;28;120004;-76
2022/10/27 01:41:04;;;;;;;28.90;9.75;;;;;;;17.95;71.44;101635.28;4916761;28;119867;-76
2022/10/27 01:43:31;;;;;;;37.70;9.98;;;;;;;17.93;71.54;101626.69;4929692;28;120530;-75
2022/10/27 01:45:59;;;;;;;31.65;9.85;;;;;;;17.83;71.49;101620.47;4906690;28;119493;-77
2022/10/27 01:48:25;;;;;;;37.15;9.75;;;;;;;17.92;71.61;101634.25;4929763;28;120319;-76
2022/10/27 01:50:54;;;;;;;37.10;9.55;;;;;;;17.89;71.79;101631.66;4925234;28;120657;-77
2022/10/27 01:53:19;;;;;;;36.67;8.77;;;;;;;17.90;71.81;101641.53;4927437;28;119295;-76
2022/10/27 01:56:03;;;;;;;34.03;9.75;;;;;;;17.89;71.63;101651.84;4929829;28;120382;-76
2022/10/27 01:58:50;;;;;;;27.33;8.45;;;;;;;17.88;71.77;101646.78;4912354;28;119935;-75
2022/10/27 02:01:51;;;;;;;36.28;9.07;;;;;;;17.86;71.79;101644.50;4925279;28;119741;-76
2022/10/27 02:04:29;;;;;;;38.80;8.63;;;;;;;17.85;71.55;101644.97;4855727;28;121285;-77
2022/10/27 02:07:04;;;;;;;30.08;8.10;;;;;;;17.83;71.72;101644.69;4915376;28;119547;-76
2022/10/27 02:09:45;;;;;;;37.47;9.00;;;;;;;17.81;71.41;101644.41;4922092;28;120122;-76
2022/10/27 02:12:27;;;;;;;37.80;8.50;;;;;;;17.78;71.65;101646.13;4921966;28;120176;-76
2022/10/27 02:14:54;;;;;;;37.05;8.68;;;;;;;17.76;71.53;101652.16;4924701;28;119321;-75
2022/10/27 02:17:23;;;;;;;36.70;8.45;;;;;;;17.74;71.39;101648.28;4921947;28;120054;-76
2022/10/27 02:19:56;;;;;;;40.60;8.27;;;;;;;17.72;71.31;101659.09;4930161;28;119736;-76
2022/10/27 02:22:26;;;;;;;25.65;8.70;;;;;;;17.70;71.42;101659.59;4912729;28;119690;-76
2022/10/27 02:24:51;;;;;;;41.50;8.88;;;;;;;17.64;71.59;101658.69;4929924;28;119742;-77
2022/10/27 02:27:29;;;;;;;35.42;9.00;;;;;;;17.66;71.26;101666.53;4942022;28;120172;-75
2022/10/27 02:29:58;;;;;;;28.42;8.05;;;;;;;17.61;71.26;101656.09;4933052;28;119712;-76
2022/10/27 02:32:26;;;;;;;36.85;8.65;;;;;;;17.62;71.22;101672.28;4928147;28;121499;-76
2022/10/27 02:34:52;;;;;;;31.77;8.30;;;;;;;17.58;71.39;101668.16;4928011;28;120447;-76
2022/10/27 02:37:37;;;;;;;31.90;8.30;;;;;;;17.56;71.29;101670.66;4917287;28;119752;-76
2022/10/27 02:40:03;;;;;;;36.13;8.38;;;;;;;17.48;71.13;101670.97;4910099;28;120009;-76
2022/10/27 02:42:28;;;;;;;35.97;9.27;;;;;;;17.49;71.43;101671.75;4917888;28;120304;-76
2022/10/27 02:44:54;;;;;;;37.65;9.25;;;;;;;17.47;71.22;101671.47;4925885;28;120167;-75
2022/10/27 02:47:52;;;;;;;40.65;9.50;;;;;;;17.44;71.55;101675.94;4873131;28;119761;-76
2022/10/27 02:50:18;;;;;;;38.83;9.18;;;;;;;17.42;71.75;101683.97;4881569;28;119976;-76
2022/10/27 02:53:04;;;;;;;39.03;9.65;;;;;;;17.42;71.81;101677.66;4922265;28;119936;-76
2022/10/27 02:55:29;;;;;;;31.88;9.20;;;;;;;17.32;71.92;101670.66;4911730;28;119792;-77
2022/10/27 02:57:55;;;;;;;34.65;9.80;;;;;;;17.41;71.77;101684.47;4911686;28;120391;-76
2022/10/27 03:00:21;;;;;;;45.65;10.45;;;;;;;17.40;71.81;101688.47;4929137;28;120128;-77
2022/10/27 03:02:47;;;;;;;31.85;9.77;;;;;;;17.40;71.63;101697.56;4936461;28;119932;-76
2022/10/27 03:05:13;;;;;;;36.45;9.23;;;;;;;17.37;71.61;101686.66;4917875;28;119487;-76
2022/10/27 03:07:39;;;;;;;31.95;9.65;;;;;;;17.37;71.57;101692.19;4917865;28;120272;-76
2022/10/27 03:10:06;;;;;;;30.02;9.35;;;;;;;17.35;71.41;101692.66;4911637;28;119925;-77
2022/10/27 03:12:56;;;;;;;36.42;9.93;;;;;;;17.32;71.47;101695.63;4928170;28;120114;-76
2022/10/27 03:15:22;;;;;;;31.92;10.18;;;;;;;17.20;71.27;101683.53;4929057;28;120078;-77
2022/10/27 03:17:48;;;;;;;34.58;10.57;;;;;;;17.18;71.40;101692.31;4929145;28;119826;-76
2022/10/27 03:20:16;;;;;;;36.30;10.73;;;;;;;17.19;71.34;101693.84;4928975;28;119763;-76
2022/10/27 03:22:59;;;;;;;30.58;9.82;;;;;;;17.17;71.19;101701.88;4929450;28;119914;-76
2022/10/27 03:25:25;;;;;;;34.10;10.73;;;;;;;17.19;71.21;101706.94;4926024;28;119506;-76
2022/10/27 03:27:51;;;;;;;44.70;11.55;;;;;;;17.16;71.37;101705.88;4928719;28;120021;-75
2022/10/27 03:30:32;;;;;;;37.05;11.75;;;;;;;17.13;71.56;101703.28;4907582;28;119515;-76
2022/10/27 03:33:02;;;;;;;40.50;12.35;;;;;;;17.10;71.48;101702.22;4931662;28;119495;-76
2022/10/27 03:35:28;;;;;;;38.15;13.35;;;;;;;17.10;71.72;101716.09;4928988;28;119598;-76
2022/10/27 03:37:55;;;;;;;38.00;13.52;;;;;;;17.08;71.66;101713.03;4929003;28;119956;-76
2022/10/27 03:40:22;;;;;;;45.33;13.80;;;;;;;17.07;71.67;101711.50;4910092;28;120031;-76
2022/10/27 03:42:47;;;;;;;40.00;13.88;;;;;;;17.06;71.42;101718.28;4928531;28;120034;-75
2022/10/27 03:45:13;;;;;;;36.58;13.63;;;;;;;17.04;71.59;101723.53;4926301;28;119635;-74
2022/10/27 03:47:39;;;;;;;35.58;13.35;;;;;;;17.00;71.56;101725.69;4903174;28;121375;-76
2022/10/27 03:50:05;;;;;;;43.58;14.23;;;;;;;16.99;71.57;101729.69;4907055;28;120006;-76
2022/10/27 03:52:31;;;;;;;36.88;14.63;;;;;;;16.93;71.67;101722.50;4933819;28;119741;-76
2022/10/27 03:54:56;;;;;;;42.10;13.68;;;;;;;16.92;71.66;101724.50;4914450;28;122141;-76
2022/10/27 03:57:22;;;;;;;35.97;14.15;;;;;;;16.88;71.56;101729.44;4928462;28;120475;-75
2022/10/27 03:59:48;;;;;;;39.08;14.13;;;;;;;16.92;71.76;101732.03;4927772;28;119560;-76
2022/10/27 04:02:13;;;;;;;40.75;13.80;;;;;;;16.90;71.76;101731.75;4911315;28;119881;-76
2022/10/27 04:04:39;;;;;;;43.20;14.65;;;;;;;16.88;71.78;101737.75;4927427;28;120474;-75
2022/10/27 04:07:05;;;;;;;44.92;14.52;;;;;;;16.87;71.84;101739.00;4926366;28;121326;-76
2022/10/27 04:09:30;;;;;;;46.28;14.63;;;;;;;16.81;71.81;101736.09;4928201;28;119844;-75
2022/10/27 04:12:04;;;;;;;41.92;15.07;;;;;;;16.81;71.85;101744.41;4927758;28;119709;-76
2022/10/27 04:14:29;;;;;;;43.60;14.80;;;;;;;16.80;71.88;101742.09;4927843;28;119976;-76
2022/10/27 04:16:55;;;;;;;37.22;14.23;;;;;;;16.79;71.98;101743.31;4933549;28;119777;-76
2022/10/27 04:19:21;;;;;;;40.05;14.80;;;;;;;16.79;71.92;101743.31;4926827;28;119953;-75
2022/10/27 04:21:46;;;;;;;46.60;14.38;;;;;;;16.76;71.80;101741.50;4931526;28;119665;-75
2022/10/27 04:24:12;;;;;;;47.60;16.15;;;;;;;16.76;71.94;101747.03;4931642;28;119771;-76
2022/10/27 04:26:39;;;;;;;42.78;15.85;;;;;;;16.74;71.91;101750.25;4927520;28;119962;-75
2022/10/27 04:29:34;;;;;;;48.15;15.57;;;;;;;16.73;71.78;101753.50;4900413;28;119584;-76
2022/10/27 04:32:20;;;;;;;48.83;16.23;;;;;;;16.69;72.35;101753.69;4921311;28;119579;-75
2022/10/27 04:35:06;;;;;;;44.80;16.08;;;;;;;16.66;72.60;101751.84;4928313;28;119533;-76
2022/10/27 04:37:33;;;;;;;44.90;15.40;;;;;;;16.70;72.52;101751.66;4924238;28;119785;-76
2022/10/27 04:39:59;;;;;;;43.13;17.20;;;;;;;16.68;72.72;101754.91;4927242;28;119507;-75
2022/10/27 04:42:24;;;;;;;43.50;17.70;;;;;;;16.73;72.63;101759.81;4930854;28;119454;-75
2022/10/27 04:44:50;;;;;;;48.58;18.88;;;;;;;16.74;72.61;101755.81;4929916;28;119835;-75
2022/10/27 04:47:33;;;;;;;40.50;18.73;;;;;;;16.76;72.87;101760.88;4931199;28;119770;-76
2022/10/27 04:49:59;;;;;;;44.67;19.88;;;;;;;16.75;73.09;101757.34;4930579;28;119614;-76
2022/10/27 04:52:25;;;;;;;51.58;20.60;;;;;;;16.85;73.48;101772.72;4913607;28;120158;-75
2022/10/27 04:54:57;;;;;;;53.53;20.83;;;;;;;16.91;73.55;101772.84;4931138;28;119404;-76
2022/10/27 04:57:23;;;;;;;46.28;21.20;;;;;;;16.91;73.65;101759.00;4930520;28;120117;-75
2022/10/27 04:59:49;;;;;;;48.75;21.13;;;;;;;17.02;73.71;101764.78;4934526;28;120040;-76
2022/10/27 05:02:14;;;;;;;48.50;21.48;;;;;;;17.07;73.80;101755.84;4931237;28;120224;-76
2022/10/27 05:04:40;;;;;;;50.05;22.27;;;;;;;17.10;73.79;101754.91;4897485;28;120540;-75
2022/10/27 05:07:31;;;;;;;42.75;21.00;;;;;;;17.11;73.68;101752.91;4930099;28;120413;-76
2022/10/27 05:09:56;;;;;;;46.95;20.90;;;;;;;17.17;73.58;101762.88;4928789;28;119472;-75
2022/10/27 05:12:22;;;;;;;46.67;22.17;;;;;;;17.21;73.53;101761.91;4913336;28;119738;-75
2022/10/27 05:14:47;;;;;;;46.17;21.92;;;;;;;17.24;73.51;101772.06;4929791;28;120974;-75
2022/10/27 05:17:13;;;;;;;45.53;21.33;;;;;;;17.27;73.54;101765.56;4930319;28;119569;-75
2022/10/27 05:19:39;;;;;;;47.38;20.90;;;;;;;17.28;73.07;101758.81;4915027;28;122222;-76
2022/10/27 05:22:04;;;;;;;50.50;20.52;;;;;;;17.27;72.73;101768.34;4934099;28;119979;-76
2022/10/27 05:24:30;;;;;;;51.63;20.85;;;;;;;17.29;72.96;101763.13;4930267;28;119566;-76
2022/10/27 05:26:56;;;;;;;51.88;20.88;;;;;;;17.30;72.74;101775.75;4926316;28;120066;-75
2022/10/27 05:29:21;;;;;;;48.80;20.85;;;;;;;17.31;72.26;101778.06;4916392;28;119757;-76
2022/10/27 05:31:47;;;;;;;43.35;19.88;;;;;;;17.27;72.24;101771.13;4930064;28;119360;-75
2022/10/27 05:34:13;;;;;;;51.13;20.00;;;;;;;17.28;72.20;101778.22;4926747;28;120305;-76
2022/10/27 05:36:38;;;;;;;52.03;20.38;;;;;;;17.25;71.75;101773.59;4925790;28;119898;-76
2022/10/27 05:39:11;;;;;;;45.90;20.05;;;;;;;17.17;71.56;101762.88;4902618;28;119623;-76
2022/10/27 05:42:03;;;;;;;43.85;18.63;;;;;;;17.13;71.41;101767.81;4886950;28;120875;-76
2022/10/27 05:44:29;;;;;;;42.00;19.95;;;;;;;17.09;71.41;101772.00;4931025;28;119476;-75
2022/10/27 05:46:54;;;;;;;48.70;20.35;;;;;;;17.04;71.42;101775.41;4923873;28;120487;-76
2022/10/27 05:49:41;;;;;;;;;;;;;;;16.96;71.39;101774.97;4923467;28;119509;-76
2022/10/27 05:52:13;;;;;;;44.00;20.55;;;;;;;16.92;71.60;101782.69;4925012;28;119628;-76
2022/10/27 05:54:38;;;;;;;56.75;21.10;;;;;;;16.89;71.71;101783.63;4914286;28;121203;-75
2022/10/27 05:57:04;;;;;;;47.17;21.40;;;;;;;16.81;71.60;101776.91;4909812;28;120105;-76
2022/10/27 05:59:30;;;;;;;47.28;21.58;;;;;;;16.77;71.81;101774.25;4925229;28;119726;-74
2022/10/27 06:01:56;;;;;;;51.47;21.52;;;;;;;16.79;71.77;101785.66;4908528;28;119940;-76
2022/10/27 06:04:21;;;;;;;46.33;22.05;;;;;;;16.77;71.85;101787.34;4911014;28;119325;-76
2022/10/27 06:06:47;;;;;;;49.95;22.50;;;;;;;16.74;72.12;101794.59;4929842;28;119153;-74
2022/10/27 06:09:12;;;;;;;60.60;23.40;;;;;;;16.75;72.37;101789.81;4926587;28;120085;-76
2022/10/27 06:11:38;;;;;;;52.80;23.98;;;;;;;16.72;72.32;101777.69;4925184;28;119160;-76
2022/10/27 06:14:04;;;;;;;53.85;23.42;;;;;;;16.71;72.44;101780.91;4925475;28;119911;-76
2022/10/27 06:16:30;;;;;;;54.83;23.90;;;;;;;16.66;71.98;101775.97;4927261;28;119871;-75
2022/10/27 06:18:55;;;;;;;57.55;25.55;;;;;;;16.68;71.79;101790.94;4926219;28;119376;-76
2022/10/27 06:21:21;;;;;;;53.30;24.67;;;;;;;16.64;71.82;101793.06;4928846;28;119913;-75
2022/10/27 06:23:50;;;;;;;61.83;27.60;;;;;;;16.60;71.79;101791.69;4928594;28;119824;-76
2022/10/27 06:26:16;;;;;;;57.80;27.92;;;;;;;16.55;71.44;101791.06;4929807;28;119383;-76
2022/10/27 06:28:42;;;;;;;60.13;27.77;;;;;;;16.52;71.92;101783.69;4919113;28;120395;-76
2022/10/27 06:31:07;;;;;;;65.18;30.80;;;;;;;16.48;71.62;101788.63;4925031;28;119581;-75
2022/10/27 06:33:33;;;;;;;66.22;30.90;;;;;;;16.47;71.71;101795.41;4923018;28;121600;-75
2022/10/27 06:35:59;;;;;;;76.32;30.35;;;;;;;16.44;72.04;101806.66;4922226;28;119582;-74
2022/10/27 06:38:24;;;;;;;66.57;31.52;;;;;;;16.40;71.90;101806.81;4912992;28;119799;-76
2022/10/27 06:40:50;;;;;;;72.43;33.58;;;;;;;16.38;72.04;101795.44;4905106;28;119707;-76
2022/10/27 06:43:16;;;;;;;68.88;31.50;;;;;;;16.37;72.01;101806.97;4923868;28;119691;-75
2022/10/27 06:45:46;;;;;;;65.90;32.50;;;;;;;16.37;72.12;101809.75;4907393;28;119492;-74
2022/10/27 06:48:12;;;;;;;76.63;33.10;;;;;;;16.34;72.39;101807.91;4921359;28;121781;-74
2022/10/27 06:50:38;;;;;;;77.90;34.15;;;;;;;16.34;72.01;101803.13;4912764;28;119362;-76
2022/10/27 06:53:22;;;;;;;85.30;34.92;;;;;;;16.36;72.34;101808.19;4925885;28;119427;-74
2022/10/27 06:55:48;;;;;;;69.93;34.28;;;;;;;16.38;72.42;101817.56;4926333;28;120413;-78
2022/10/27 06:58:13;;;;;;;78.35;34.17;;;;;;;16.43;72.45;101825.25;4924252;28;120115;-75
2022/10/27 07:00:39;;;;;;;73.55;33.78;;;;;;;16.45;72.29;101833.88;4921171;28;119367;-76
2022/10/27 07:03:09;;;;;;;72.13;33.80;;;;;;;16.46;72.42;101835.41;4927065;28;119475;-76
2022/10/27 07:05:35;;;;;;;64.10;32.90;;;;;;;16.49;72.40;101836.47;4904039;28;120516;-75
2022/10/27 07:08:01;;;;;;;77.53;34.65;;;;;;;16.50;72.17;101833.25;4925714;28;120089;-76
2022/10/27 07:10:27;;;;;;;73.88;34.00;;;;;;;16.46;72.38;101829.88;4931933;28;119501;-76
2022/10/27 07:12:55;;;;;;;77.78;33.05;;;;;;;16.48;72.75;101824.63;4923219;28;120153;-75
2022/10/27 07:15:21;;;;;;;76.55;33.47;;;;;;;16.53;72.65;101843.38;4921554;28;120024;-74
2022/10/27 07:17:47;;;;;;;68.47;32.55;;;;;;;16.53;72.44;101839.84;4925838;28;119192;-76
2022/10/27 07:20:13;;;;;;;74.75;33.88;;;;;;;16.52;72.47;101830.78;4925967;28;120313;-75
2022/10/27 07:22:40;;;;;;;66.32;32.75;;;;;;;16.59;72.43;101849.09;4927244;28;121319;-76
2022/10/27 07:25:08;;;;;;;68.97;31.85;;;;;;;16.60;72.54;101845.09;4901606;28;121894;-76
2022/10/27 07:27:34;;;;;;;65.70;31.27;;;;;;;16.64;72.40;101845.69;4923170;28;120488;-76
2022/10/27 07:30:00;;;;;;;69.88;32.17;;;;;;;16.64;72.32;101842.16;4925232;28;120391;-76
2022/10/27 07:32:25;;;;;;;67.40;31.90;;;;;;;16.67;72.58;101850.34;4928043;28;119629;-75
2022/10/27 07:34:52;;;;;;;64.90;31.17;;;;;;;16.70;72.47;101846.63;4922907;28;119676;-76
2022/10/27 07:37:18;;;;;;;62.92;30.92;;;;;;;16.71;72.37;101844.63;4924621;28;120227;-75
2022/10/27 07:39:43;;;;;;;65.60;30.52;;;;;;;16.76;72.41;101849.53;4925276;28;119904;-76
2022/10/27 07:42:27;;;;;;;;;;;;;;;16.76;72.16;101852.31;4924960;28;119304;-74
2022/10/27 07:44:53;;;;;;;61.03;28.08;;;;;;;16.82;72.00;101853.25;4923970;28;119899;-74
2022/10/27 07:47:19;;;;;;;55.05;27.30;;;;;;;16.85;72.12;101853.09;4912090;28;122329;-76
2022/10/27 07:49:59;;;;;;;58.65;28.73;;;;;;;16.87;72.07;101852.63;4922066;28;119946;-76
2022/10/27 07:52:25;;;;;;;58.78;28.52;;;;;;;16.91;72.11;101858.75;4922466;28;119730;-76
2022/10/27 07:54:51;;;;;;;57.42;27.65;;;;;;;16.94;72.20;101860.59;4929095;28;120781;-76
2022/10/27 07:57:16;;;;;;;59.20;27.83;;;;;;;16.99;72.23;101857.19;4910935;28;122263;-75
2022/10/27 07:59:44;;;;;;;54.40;26.70;;;;;;;17.00;72.21;101849.63;4915496;28;119683;-75
2022/10/27 08:02:10;;;;;;;54.03;26.83;;;;;;;17.07;71.88;101861.19;4926822;28;119829;-75
2022/10/27 08:04:36;;;;;;;59.63;28.45;;;;;;;17.12;72.03;101863.31;4929108;28;119792;-76
2022/10/27 08:07:01;;;;;;;54.50;28.02;;;;;;;17.16;71.92;101858.38;4911481;28;122839;-76
2022/10/27 08:09:28;;;;;;;61.05;27.10;;;;;;;17.22;72.05;101868.81;4923066;28;119851;-75
2022/10/27 08:11:55;;;;;;;56.05;28.40;;;;;;;17.24;71.92;101861.56;4924461;28;120190;-76
2022/10/27 08:14:21;;;;;;;54.10;27.50;;;;;;;17.29;71.84;101863.72;4930809;28;120069;-76
2022/10/27 08:16:47;;;;;;;72.13;36.97;;;;;;;17.36;71.97;101862.63;4933007;28;120308;-76
2022/10/27 08:19:12;;;;;;;56.95;28.48;;;;;;;17.43;72.17;101865.03;4931664;28;120094;-76
2022/10/27 08:21:38;;;;;;;54.88;27.67;;;;;;;17.51;72.11;101869.03;4927377;28;119472;-76
2022/10/27 08:24:04;;;;;;;46.60;25.70;;;;;;;17.57;72.00;101864.38;4920322;28;120036;-76
2022/10/27 08:26:30;;;;;;;52.75;26.85;;;;;;;17.60;71.71;101860.63;4928764;28;120005;-76
2022/10/27 08:28:56;;;;;;;45.88;25.00;;;;;;;17.64;71.63;101864.00;4927845;28;119612;-76
2022/10/27 08:31:23;;;;;;;47.50;24.95;;;;;;;17.64;71.62;101857.69;4928447;28;119669;-75
2022/10/27 08:34:07;;;;;;;50.28;25.75;;;;;;;17.64;71.41;101852.91;4926432;28;120020;-76
2022/10/27 08:36:37;;;;;;;53.40;25.38;;;;;;;17.69;71.35;101859.84;4908102;28;120256;-75
2022/10/27 08:39:04;;;;;;;46.38;25.42;;;;;;;17.69;71.41;101848.75;4929039;28;120273;-75
2022/10/27 08:41:44;;;;;;;45.55;25.58;;;;;;;17.76;71.35;101862.28;4908129;28;120010;-75
2022/10/27 08:44:16;;;;;;;58.92;26.00;;;;;;;17.82;71.46;101857.63;4923160;28;120928;-75
2022/10/27 08:46:54;;;;;;;48.38;25.60;;;;;;;17.88;71.43;101864.03;4922881;28;120030;-76
2022/10/27 08:49:35;;;;;;;46.00;25.48;;;;;;;17.91;71.27;101865.09;4909855;28;120228;-75
2022/10/27 08:52:09;;;;;;;47.72;25.83;;;;;;;17.97;71.84;101863.22;4896361;28;121354;-76
2022/10/27 08:54:36;;;;;;;48.08;24.90;;;;;;;17.99;72.16;101860.75;4924240;28;120017;-76
2022/10/27 08:57:27;;;;;;;47.55;24.48;;;;;;;18.20;71.82;101870.75;4927115;28;119965;-76
2022/10/27 08:59:54;;;;;;;47.72;24.08;;;;;;;18.32;71.77;101874.53;4923821;28;120514;-76
2022/10/27 09:02:47;;;;;;;46.70;23.63;;;;;;;18.40;71.37;101865.34;4912224;28;121147;-76
2022/10/27 09:05:37;;;;;;;41.90;22.38;;;;;;;18.47;71.19;101872.56;4924941;28;120206;-76
2022/10/27 09:08:08;;;;;;;43.65;22.33;;;;;;;18.53;71.10;101865.09;4908165;28;123188;-76
2022/10/27 09:10:40;;;;;;;41.78;22.05;;;;;;;18.57;71.04;101856.56;4921311;28;119973;-75
2022/10/27 09:13:08;;;;;;;33.75;19.73;;;;;;;18.64;70.79;101865.31;4921266;28;120215;-76
2022/10/27 09:15:43;;;;;;;33.78;19.55;;;;;;;18.67;70.32;101877.47;4921031;28;120925;-75
2022/10/27 09:18:32;;;;;;;37.33;19.95;;;;;;;18.72;70.42;101867.72;4922263;28;119601;-74
2022/10/27 09:21:01;;;;;;;35.42;20.13;;;;;;;18.69;70.01;101864.66;4924135;28;121122;-76
2022/10/27 09:23:34;;;;;;;38.33;19.63;;;;;;;18.75;69.92;101875.88;4924238;28;121902;-76
2022/10/27 09:26:00;;;;;;;32.43;19.13;;;;;;;18.74;69.82;101870.78;4906018;28;122218;-76
2022/10/27 09:28:47;;;;;;;34.47;18.75;;;;;;;18.70;69.61;101874.53;4920922;28;120179;-76
2022/10/27 09:31:16;;;;;;;34.97;19.48;;;;;;;18.71;69.89;101872.53;4907972;28;119960;-75
2022/10/27 09:33:59;;;;;;;34.22;18.25;;;;;;;18.74;69.79;101877.13;4921903;28;119960;-76
2022/10/27 09:36:24;;;;;;;36.78;19.25;;;;;;;18.78;70.07;101874.16;4906474;28;120508;-75
2022/10/27 09:38:50;;;;;;;37.30;18.67;;;;;;;18.80;69.76;101872.41;4920195;28;120047;-75
2022/10/27 09:41:16;;;;;;;32.90;19.35;;;;;;;18.84;69.93;101875.00;4920724;28;119664;-75
2022/10/27 09:43:42;;;;;;;36.00;19.00;;;;;;;18.87;69.93;101874.03;4921062;28;120503;-76
2022/10/27 09:46:22;;;;;;;32.22;17.42;;;;;;;18.87;69.90;101872.03;4908179;28;120186;-76
2022/10/27 09:49:05;;;;;;;27.42;17.42;;;;;;;18.92;70.27;101876.91;4920170;28;120229;-76
2022/10/27 09:51:47;;;;;;;33.60;17.20;;;;;;;19.04;70.56;101893.78;4930742;28;119693;-75
2022/10/27 09:54:30;;;;;;;33.53;17.60;;;;;;;19.12;70.68;101892.91;4925186;28;120155;-76
2022/10/27 09:57:07;;;;;;;34.85;17.42;;;;;;;19.20;70.63;101896.09;4924422;28;119678;-74
2022/10/27 09:59:35;;;;;;;42.35;17.52;;;;;;;19.27;70.50;101890.13;4916695;28;119832;-75
2022/10/27 10:02:04;;;;;;;32.95;16.40;;;;;;;19.33;70.45;101894.53;4926804;28;120132;-75
2022/10/27 10:04:45;;;;;;;29.33;15.90;;;;;;;19.41;70.07;101888.59;4905239;28;120999;-75
2022/10/27 10:07:30;;;;;;;32.92;15.77;;;;;;;19.52;70.25;101889.50;4924332;28;120060;-76
2022/10/27 10:10:14;;;;;;;;;;;;;;;19.58;69.79;101886.81;4927091;28;120167;-74
2022/10/27 10:12:40;;;;;;;26.17;14.70;;;;;;;19.68;69.79;101888.25;4922268;28;119808;-77
2022/10/27 10:15:09;;;;;;;23.77;14.20;;;;;;;19.79;69.71;101879.28;4921993;28;120547;-74
2022/10/27 10:17:35;;;;;;;29.35;14.55;;;;;;;19.83;69.01;101880.59;4907541;28;120459;-74
2022/10/27 10:20:02;;;;;;;28.55;13.43;;;;;;;19.85;68.84;101872.53;4924168;28;120246;-74
2022/10/27 10:22:33;;;;;;;29.30;14.48;;;;;;;19.92;68.89;101876.94;4922650;28;120228;-77
2022/10/27 10:25:21;;;;;;;28.63;14.18;;;;;;;19.92;68.55;101874.16;4920718;28;120591;-76
2022/10/27 10:27:56;;;;;;;27.50;14.20;;;;;;;19.97;68.40;101875.47;4910634;28;120127;-76
2022/10/27 10:30:22;;;;;;;27.33;13.48;;;;;;;19.98;68.68;101868.63;4909529;28;119753;-76
2022/10/27 10:32:54;;;;;;;25.70;14.07;;;;;;;20.07;68.93;101872.03;4926641;28;120475;-75
2022/10/27 10:35:46;;;;;;;29.42;14.07;;;;;;;20.14;68.96;101863.28;4925170;28;121012;-76
2022/10/27 10:38:26;;;;;;;27.35;13.93;;;;;;;20.16;68.44;101852.41;4907857;28;120330;-77
2022/10/27 10:41:12;;;;;;;24.30;13.00;;;;;;;20.22;68.77;101850.44;4922394;28;120275;-77
2022/10/27 10:43:39;;;;;;;27.35;12.80;;;;;;;20.23;68.14;101851.22;4926218;28;120277;-74
2022/10/27 10:46:21;;;;;;;24.52;12.70;;;;;;;20.25;68.10;101854.28;4921282;28;119862;-75
2022/10/27 10:48:54;;;;;;;27.70;13.25;;;;;;;20.21;68.05;101848.91;4923517;28;120441;-77
2022/10/27 10:51:31;;;;;;;22.10;11.60;;;;;;;20.28;68.09;101852.53;4925208;28;120173;-74
2022/10/27 10:54:04;;;;;;;27.13;12.27;;;;;;;20.35;68.16;101852.13;4924026;28;119916;-77
2022/10/27 10:56:35;;;;;;;24.40;12.77;;;;;;;20.37;68.05;101853.16;4926855;28;120133;-76
2022/10/27 10:59:13;;;;;;;24.50;12.73;;;;;;;20.38;68.08;101843.53;4923870;28;120466;-74
2022/10/27 11:01:46;;;;;;;23.77;12.00;;;;;;;20.43;67.86;101842.09;4924257;28;120923;-76
2022/10/27 11:04:16;;;;;;;25.23;11.30;;;;;;;20.51;67.56;101848.75;4920893;28;121002;-75
2022/10/27 11:07:23;;;;;;;25.48;12.30;;;;;;;20.54;67.46;101858.91;4921852;28;120391;-74
2022/10/27 11:09:58;;;;;;;27.65;12.68;;;;;;;20.52;67.26;101847.47;4918001;28;120195;-77
2022/10/27 11:12:32;;;;;;;19.20;11.52;;;;;;;20.53;67.43;101846.22;4922932;28;122106;-77
2022/10/27 11:15:02;;;;;;;26.42;13.15;;;;;;;20.56;67.43;101845.25;4923396;28;121121;-74
2022/10/27 11:17:32;;;;;;;25.65;12.27;;;;;;;20.64;67.79;101835.19;4923141;28;120713;-75
2022/10/27 11:20:34;;;;;;;26.05;12.25;;;;;;;20.72;67.89;101825.13;4906145;28;120465;-76
2022/10/27 11:23:13;;;;;;;26.13;12.17;;;;;;;20.82;67.80;101829.28;4924723;28;120731;-77